You are not logged in, Click here to log in
臺東機場TTT / RCFN 臺灣臺東縣臺東市
ICAO: RCFN Country: 臺灣臺東縣臺東市
Latitude: 22.7571 Longitude: 121.106
Total Arrivals: 35 Total Departures: 47
Latest Arrival: CI255 (ZGGG-RCFN)Lun. Wang Latest Departure: AE15473 (RCFN-RCBS)Lun. Wang
Scenery:
METAR : RCFN 251300Z 02007KT 320V060 9999 VCSH SCT015 BKN050 23/18 Q1017 NOSIG RMK A3005

臺東機場TTT

You are accessing this site from IP address 18.234.97.53. Virtual Airline. CMS by phpVMS.Website designed by Zumeweb and edited by Theo Bearman.
There is 0 User(s) Online: | and 19 Guest(s) Online.
All information on this site is for fight simulation purposes only. This site is for flight logging for pilots of Virtual Airline&模擬飛行論壇 FlySim only.